Aktualne dane pomiarowe

Uwaga, wersja testowa! Automatyczne pobieranie danych za pomocą narzędzi lub skryptów to umożliwiających jest zabronione.

Dane meteo z obszaru Polski uzyskane na podstawie depesz SYNOP pobieranych co godzinę z NWS. Najedź myszką na symbol przedstawiony w tabeli, aby uzyskać informacje co do jego znaczenia. Prosimy pamiętać, że to testowa wersja strony, która jeszcze nie jest ukończona. Stworzono również jest krótki FAQ dotyczący korzystania z tej podstrony Anomalie temperatury w chwili obecnej odniesione są do okresu referencyjnego 1951-2016. Okres ten będzie później zmieniony na 1981-2010. Kliknij ikonę aby pobrać plik CSV. Kliknij ikonę aby wygenerować mapę synoptyczną dla danego terminu.

Wybierz Datę:    

        

Kraków-Balice (12566)

Dane terminowe dla wybranej stacji. Kliknij datę, aby otrzymać dane z tego terminu dla wszystkich stacji.

TemperaturaZachmurzenieWiatrCiśnienieOpadyPogoda
 Data t td wb tx tn tg rh  Nt Nl Cl Cm Ch ws wd g1 g2 wx mslp ppp ch 24h 12h t ww ww w1 w2  
2019-07-24 23:00:00 16.9 15.4 15.8--- 9130.0wx-wx0---01020.2 992.0 0.4---------
2019-07-24 22:00:00 18.0 16.2 16.7--- 8930.0wx-wxwx1wx--11020.0 991.9 0.7---------
2019-07-24 21:00:00 18.9 16.3 17.1--- 8530.0wx-wxwx0---01019.6 991.6 0.8---------
2019-07-24 20:00:00 18.7 15.8 16.7--- 8340.0wx-wxwx1wx--11019.6 991.6 1.1---------
2019-07-24 19:00:00 21.1 15.9 17.6--- 7240.0wx-wxwx2wx--21019.0 991.2 0.7---------
2019-07-24 18:00:00 22.8 15.6 18.1 24.1 19.0- 6440.0wx-wxwx2wx--21018.4 990.8 0.1- 0.012------
2019-07-24 17:00:00 23.4 15.7 18.3--- 6240.0wxwxwxwx3wx--31018.0 990.5 -0.3---------
2019-07-24 16:00:00 23.5 15.5 18.3--- 6140.0wxwxwxwx2wx--21018.0 990.5 0.0---------
2019-07-24 15:00:00 23.8 15.0 18.1--- 5840.0wxwxwx3wx--31018.2 990.7 0.2---------
2019-07-24 14:00:00 24.0 15.5 18.5--- 5940.0wxwxwx4wx--41018.3 990.8 0.3---------
2019-07-24 13:00:00 23.4 16.2 18.6--- 6440.0wxwxwx3wx--31018.4 990.5 0.2---------
2019-07-24 12:00:00 23.4 16.2 18.6--- 6435.0wxwxwx4wx--41018.4 990.5 0.2- 0.06------
2019-07-24 11:00:00 22.8 16.6 18.6--- 6835.0wxwxwx4wx--41018.5 990.5 -0.1---------
2019-07-24 10:00:00 22.3 16.8 18.6--- 7135.0wxwxwx4wx--41018.3 990.3 -0.5---------
2019-07-24 09:00:00 22.3 17.0 18.7--- 7230.0wxwxwx3wx---1018.3 990.3 -0.7---------
2019-07-24 08:00:00 21.4 17.2 18.5--- 7715.0wxwxwx3wx--31018.7 990.6 -0.3---------
2019-07-24 07:00:00 20.0 17.0 17.9--- 8315.0wxwxwx1wx--11019.1 990.8 0.0---------
2019-07-24 06:00:00 19.0 17.0 17.6 19.3 17.6 16 8810.0wxwxwx1wx--11019.4 991.0 0.4 0.4 0.012------
2019-07-24 05:00:00 18.5 17.2 17.6--- 928.0wxwxwx1wx---1019.3 990.9 0.1---wx---
2019-07-24 04:00:00 18.0 16.8 17.1--- 938.0wxwxwx1wx--11019.3 990.8 -0.4---wx---
2019-07-24 03:00:00 17.6 17.1 17.2--- 976.0wxwxwx2wx--21019.1 990.6 -1.0---wx---
2019-07-24 02:00:00 17.7 17.2 17.3--- 977.0wxwxwx1wx--11019.3 990.8 -0.9---wx---
2019-07-24 01:00:00 17.9 16.9 17.2--- 948.0wxwxwx2wx--21019.7 991.2 -0.7---wx---
2019-07-24 00:00:00 18.0 16.7 17.1--- 928.0wxwxwx0---01020.1 991.6 -0.3- 0.06wx---
2019-07-23 23:00:00 18.0 16.8 17.1--- 9310.0wxwxwx2wx---1020.2 991.7 -0.3---------
2019-07-23 22:00:00 18.1 16.6 17.0--- 9110.0wxwxwx1wx---1020.4 991.9 -0.1---------
2019-07-23 21:00:00 18.0 16.5 16.9--- 9115.0wxwxwx2wx--21020.4 991.9 0.2---------
2019-07-23 20:00:00 18.0 16.7 17.1--- 9220.0wxwxwx3wx--31020.5 992.0 0.6---------
2019-07-23 19:00:00 18.4 16.4 17.0--- 8830.0wxwxwx3wx--31020.5 992.0 0.3---------
2019-07-23 18:00:00 19.3 15.6 16.8 19.6 16.5- 7940.0wxwxwx1wx--11020.1 991.7 -0.1- 0.412wx-w1--
2019-07-23 17:00:00 19.6 15.9 17.1--- 7930.0wxwxwx3wx---1019.7 991.4 -0.5---------
2019-07-23 16:00:00 19.2 15.9 16.9--- 8130.0wxwxwx4wx--41020.1 991.7 -0.4---------
2019-07-23 15:00:00 18.3 16.5 17.0--- 8920.0wxwxwx4wx--41020.3 991.8 -0.2---wx---
2019-07-23 14:00:00 18.4 16.7 17.2--- 9030.0wxwxwx2wx--21020.4 991.9 -0.2---wx---
2019-07-23 13:00:00 18.3 16.5 17.0--- 897.0wxwxwx3wx---1020.6 992.1 -0.3---wx---
2019-07-23 12:00:00 18.9 15.9 16.8--- 8330.0wxwxwx4wx--41020.4 992.0 -0.2- 0.36wx-w1--
2019-07-23 11:00:00 18.8 16.4 17.1--- 8620.0wxwxwx4wx--41020.5 992.1 -0.2---wx---
2019-07-23 10:00:00 17.7 16.2 16.6--- 916.0wxwxwx3wx--31020.9 992.4 0.1---wx-w1--
2019-07-23 09:00:00 18.2 16.2 16.8--- 8810.0wxwxwx3wx--31020.7 992.2 0.1---wx-w1--
2019-07-23 08:00:00 17.4 15.7 16.2--- 9010.0wxwxwx4wx--41020.9 992.3 -0.1---------
2019-07-23 07:00:00 16.7 15.2 15.6--- 9110.0wxwxwx3wx--31020.9 992.3 0.0---wx---
2019-07-23 06:00:00 16.5 15.0 15.4 23.8 16.5 15 918.0wxwxwx2wx--21020.8 992.1 -0.1 0.1 0.112wx-w1--
2019-07-23 05:00:00 17.3 14.9 15.6--- 868.0wxwxwx2wx--21021.0 992.4 -0.1---wx-w1w2--
2019-07-23 04:00:00 17.4 15.0 15.7--- 8620.0wxwxwx1wx--11020.9 992.3 -0.4---wx-w1--
2019-07-23 03:00:00 17.5 14.8 15.6--- 8425.0wxwxwx2wx--21020.8 992.2 -0.8---wx-w1--
2019-07-23 02:00:00 18.2 14.1 15.4--- 7720.0wxwxwx3wx--31021.0 992.5 -0.3---wx---
2019-07-23 01:00:00 18.2 15.1 16.1--- 8220.0wxwxwx2wx---1021.2 992.7 0.1---wx-w1--
2019-07-23 00:00:00 18.2 14.3 15.6--- 7830.0wxwxwx3wx--31021.5 993.0 0.5--6wx-w1--
5.8 ms

 

Print Friendly, PDF & Email